Stolt Jade — ZCSQ4 — position and weather

sailwx.info

Track history (hours):
 
Tides and Currents Weather Stations Pressure Air Temp Water Temp Dewpoint Dewpoint Depression Visibility Wind Speed Wind Dir Waves Ship Positions

Stolt Jade

Last reported at 2014-Sep-14 11:07 UTC. Time now 2014-Sep-15 04:01 UTC.
Position N 29°21' W 094°45'.

Length 175 m; draft 11 m.

Type: Ship (hazmat cat B). MMSI: 319439000.

Date/timePositionNaut miles runAvg speedWind from/ knotsBaromVisibWave heightAir tempDewpointWater temp
2014-Sep-14 11:07N 29°21' W 094°45'711.2
2014-Sep-14 10:31N 29°26' W 094°50'1111.4
2014-Sep-14 09:33N 29°35' W 094°56'9 9.3
2014-Sep-14 08:33N 29°44' W 095°01'5 5.3
2014-Sep-14 07:32N 29°44' W 095°07'  
2014-Sep-11 22:24N 29°44' W 095°08'3 4.1
2014-Sep-11 21:33N 29°45' W 095°04'8 8.0
2014-Sep-11 20:33N 29°39' W 094°58'1211.5
2014-Sep-11 19:33N 29°29' W 094°51'1110.3
2014-Sep-11 18:32N 29°21' W 094°43'1 0.0
2014-Sep-10 14:30N 29°21' W 094°44'1010.5
2014-Sep-10 13:33N 29°28' W 094°51'1010.3
2014-Sep-10 12:33N 29°37' W 094°58'3 3.1
2014-Sep-10 11:33N 29°37' W 095°01'0 0.0
2014-Sep-10 10:33N 29°37' W 095°01'0 0.0
2014-Sep-10 09:33N 29°37' W 095°01'0 0.0
2014-Sep-10 08:33N 29°37' W 095°01'0 0.0
2014-Sep-10 07:33N 29°37' W 095°01'0 0.0
2014-Sep-10 06:33N 29°37' W 095°01'0 0.0
2014-Sep-10 05:30N 29°37' W 095°01'0 0.0
2014-Sep-10 04:33N 29°37' W 095°01'0 0.0
2014-Sep-10 03:33N 29°37' W 095°01'0 0.0
2014-Sep-10 02:33N 29°37' W 095°01'0 0.0
2014-Sep-10 01:33N 29°37' W 095°01'0 0.0
2014-Sep-10 00:33N 29°37' W 095°01'0 0.0
2014-Sep-09 23:33N 29°37' W 095°01'0 0.0
2014-Sep-09 22:33N 29°37' W 095°01'0 0.0
2014-Sep-09 21:33N 29°37' W 095°01'0 0.0
2014-Sep-09 20:33N 29°37' W 095°01'0 0.0
2014-Sep-09 19:33N 29°37' W 095°01'0 0.0
2014-Sep-09 18:33N 29°37' W 095°01'0 0.0
2014-Sep-09 17:33N 29°37' W 095°01'0 0.0
2014-Sep-09 14:27N 29°37' W 095°01'0 0.0
2014-Sep-09 13:33N 29°37' W 095°01'0 0.0
2014-Sep-09 12:30N 29°37' W 095°01'0 0.0
2014-Sep-09 11:33N 29°37' W 095°01'0 0.0
2014-Sep-09 10:27N 29°37' W 095°01'0 0.0
2014-Sep-09 09:15N 29°37' W 095°01'0 0.0
2014-Sep-09 08:18N 29°37' W 095°01'0 0.0
2014-Sep-09 07:30N 29°37' W 095°01'0 0.0
2014-Sep-09 06:33N 29°37' W 095°01'0 0.0
2014-Sep-09 05:33N 29°37' W 095°01'0 0.0
2014-Sep-09 04:33N 29°37' W 095°01'0 0.0
2014-Sep-09 03:33N 29°37' W 095°01'0 0.0
2014-Sep-09 02:24N 29°37' W 095°01'0 0.0
2014-Sep-09 01:30N 29°37' W 095°01'0 0.0
2014-Sep-09 00:33N 29°37' W 095°01'0 0.0
2014-Sep-08 23:33N 29°37' W 095°01'0 0.0
2014-Sep-08 22:33N 29°37' W 095°01'0 0.0
2014-Sep-08 21:33N 29°37' W 095°01'0 0.0
2014-Sep-08 20:33N 29°37' W 095°01'0 0.0
2014-Sep-08 19:33N 29°37' W 095°01'0 0.0
2014-Sep-08 18:27N 29°37' W 095°01'0 0.0
2014-Sep-08 17:30N 29°37' W 095°01'0 0.0
2014-Sep-08 16:33N 29°37' W 095°01'0 0.0
2014-Sep-08 15:33N 29°37' W 095°01'0 0.0
2014-Sep-08 14:33N 29°37' W 095°01'0 0.0
2014-Sep-08 13:30N 29°37' W 095°01'0 0.0
2014-Sep-08 12:33N 29°37' W 095°01'0 0.0
2014-Sep-08 11:33N 29°37' W 095°01'0 0.0
2014-Sep-08 10:33N 29°37' W 095°01'0 0.0
2014-Sep-08 09:33N 29°37' W 095°01'0 0.0
2014-Sep-08 08:24N 29°37' W 095°01'0 0.0
2014-Sep-08 07:33N 29°37' W 095°01'0 0.0
2014-Sep-08 06:30N 29°37' W 095°01'0 0.0
2014-Sep-08 05:33N 29°37' W 095°01'0 0.0
2014-Sep-08 04:33N 29°37' W 095°01'0 0.0
2014-Sep-08 03:33N 29°37' W 095°01'0 0.3
2014-Sep-08 02:33N 29°37' W 095°01'5 5.3
2014-Sep-08 01:33N 29°42' W 095°00'6 0.2
2014-Sep-06 20:33N 29°45' W 095°06'5 4.5
2014-Sep-06 19:33N 29°43' W 095°01'1010.1
2014-Sep-06 18:33N 29°34' W 094°55'1313.3
2014-Sep-06 17:33N 29°22' W 094°48'3 0.3
2014-Sep-06 08:30N 29°21' W 094°45'7 7.7
2014-Sep-06 07:33N 29°22' W 094°53'1 1.3
2014-Sep-06 06:26N 29°22' W 094°55'0 0.0
2014-Sep-05 14:33N 29°22' W 094°55'5 4.5
2014-Sep-05 13:33N 29°22' W 094°50'  
Track history (hours):
 
Tides and Currents Weather Stations Pressure Air Temp Water Temp Dewpoint Dewpoint Depression Visibility Wind Speed Wind Dir Waves Ship Positions

Stolt Jade

Last reported at 2014-Sep-14 11:07 UTC. Time now 2014-Sep-15 04:01 UTC.
Position N 29°21' W 094°45'.

Length 175 m; draft 11 m.

Type: Ship (hazmat cat B). MMSI: 319439000.

Date/timePositionNaut miles runAvg speedWind from/ knotsBaromVisibWave heightAir tempDewpointWater temp
2014-Sep-14 11:07N 29°21' W 094°45'711.2
2014-Sep-14 10:31N 29°26' W 094°50'1111.4
2014-Sep-14 09:33N 29°35' W 094°56'9 9.3
2014-Sep-14 08:33N 29°44' W 095°01'5 5.3
2014-Sep-14 07:32N 29°44' W 095°07'  
2014-Sep-11 22:24N 29°44' W 095°08'3 4.1
2014-Sep-11 21:33N 29°45' W 095°04'8 8.0
2014-Sep-11 20:33N 29°39' W 094°58'1211.5
2014-Sep-11 19:33N 29°29' W 094°51'1110.3
2014-Sep-11 18:32N 29°21' W 094°43'1 0.0
2014-Sep-10 14:30N 29°21' W 094°44'1010.5
2014-Sep-10 13:33N 29°28' W 094°51'1010.3
2014-Sep-10 12:33N 29°37' W 094°58'3 3.1
2014-Sep-10 11:33N 29°37' W 095°01'0 0.0
2014-Sep-10 10:33N 29°37' W 095°01'0 0.0
2014-Sep-10 09:33N 29°37' W 095°01'0 0.0
2014-Sep-10 08:33N 29°37' W 095°01'0 0.0
2014-Sep-10 07:33N 29°37' W 095°01'0 0.0
2014-Sep-10 06:33N 29°37' W 095°01'0 0.0
2014-Sep-10 05:30N 29°37' W 095°01'0 0.0
2014-Sep-10 04:33N 29°37' W 095°01'0 0.0
2014-Sep-10 03:33N 29°37' W 095°01'0 0.0
2014-Sep-10 02:33N 29°37' W 095°01'0 0.0
2014-Sep-10 01:33N 29°37' W 095°01'0 0.0
2014-Sep-10 00:33N 29°37' W 095°01'0 0.0
2014-Sep-09 23:33N 29°37' W 095°01'0 0.0
2014-Sep-09 22:33N 29°37' W 095°01'0 0.0
2014-Sep-09 21:33N 29°37' W 095°01'0 0.0
2014-Sep-09 20:33N 29°37' W 095°01'0 0.0
2014-Sep-09 19:33N 29°37' W 095°01'0 0.0
2014-Sep-09 18:33N 29°37' W 095°01'0 0.0
2014-Sep-09 17:33N 29°37' W 095°01'0 0.0
2014-Sep-09 14:27N 29°37' W 095°01'0 0.0
2014-Sep-09 13:33N 29°37' W 095°01'0 0.0
2014-Sep-09 12:30N 29°37' W 095°01'0 0.0
2014-Sep-09 11:33N 29°37' W 095°01'0 0.0
2014-Sep-09 10:27N 29°37' W 095°01'0 0.0
2014-Sep-09 09:15N 29°37' W 095°01'0 0.0
2014-Sep-09 08:18N 29°37' W 095°01'0 0.0
2014-Sep-09 07:30N 29°37' W 095°01'0 0.0
2014-Sep-09 06:33N 29°37' W 095°01'0 0.0
2014-Sep-09 05:33N 29°37' W 095°01'0 0.0
2014-Sep-09 04:33N 29°37' W 095°01'0 0.0
2014-Sep-09 03:33N 29°37' W 095°01'0 0.0
2014-Sep-09 02:24N 29°37' W 095°01'0 0.0
2014-Sep-09 01:30N 29°37' W 095°01'0 0.0
2014-Sep-09 00:33N 29°37' W 095°01'0 0.0
2014-Sep-08 23:33N 29°37' W 095°01'0 0.0
2014-Sep-08 22:33N 29°37' W 095°01'0 0.0
2014-Sep-08 21:33N 29°37' W 095°01'0 0.0
2014-Sep-08 20:33N 29°37' W 095°01'0 0.0
2014-Sep-08 19:33N 29°37' W 095°01'0 0.0
2014-Sep-08 18:27N 29°37' W 095°01'0 0.0
2014-Sep-08 17:30N 29°37' W 095°01'0 0.0
2014-Sep-08 16:33N 29°37' W 095°01'0 0.0
2014-Sep-08 15:33N 29°37' W 095°01'0 0.0
2014-Sep-08 14:33N 29°37' W 095°01'0 0.0
2014-Sep-08 13:30N 29°37' W 095°01'0 0.0
2014-Sep-08 12:33N 29°37' W 095°01'0 0.0
2014-Sep-08 11:33N 29°37' W 095°01'0 0.0
2014-Sep-08 10:33N 29°37' W 095°01'0 0.0
2014-Sep-08 09:33N 29°37' W 095°01'0 0.0
2014-Sep-08 08:24N 29°37' W 095°01'0 0.0
2014-Sep-08 07:33N 29°37' W 095°01'0 0.0
2014-Sep-08 06:30N 29°37' W 095°01'0 0.0
2014-Sep-08 05:33N 29°37' W 095°01'0 0.0
2014-Sep-08 04:33N 29°37' W 095°01'0 0.0
2014-Sep-08 03:33N 29°37' W 095°01'0 0.3
2014-Sep-08 02:33N 29°37' W 095°01'5 5.3
2014-Sep-08 01:33N 29°42' W 095°00'6 0.2
2014-Sep-06 20:33N 29°45' W 095°06'5 4.5
2014-Sep-06 19:33N 29°43' W 095°01'1010.1
2014-Sep-06 18:33N 29°34' W 094°55'1313.3
2014-Sep-06 17:33N 29°22' W 094°48'3 0.3
2014-Sep-06 08:30N 29°21' W 094°45'7 7.7
2014-Sep-06 07:33N 29°22' W 094°53'1 1.3
2014-Sep-06 06:26N 29°22' W 094°55'0 0.0
2014-Sep-05 14:33N 29°22' W 094°55'5 4.5
2014-Sep-05 13:33N 29°22' W 094°50'  

Dump ship's entire track history